Time;durP1;ratioP1;P1;durP2;ratioP2;P2;SDS_P1;SDS_P2;PMS_P1;PMS_P2;Temp;Humidity;BMP_temperature;BMP_pressure;BME280_temperature;BME280_humidity;BME280_pressure;Samples;Min_cycle;Max_cycle;Signal;HPM_P1;HPM_P2
2023/10/25 00:00:44;;;;;;;32.50;28.40;;;;;;;12.84;100.00;97277.27;109517;1253;59074;-68
2023/10/25 00:03:30;;;;;;;32.60;29.00;;;;;;;12.85;100.00;97276.71;109600;1250;58898;-68
2023/10/25 00:05:57;;;;;;;34.40;29.80;;;;;;;12.85;100.00;97270.77;109631;1250;61240;-68
2023/10/25 00:08:23;;;;;;;34.60;29.70;;;;;;;12.85;100.00;97267.70;109414;1251;66313;-67
2023/10/25 00:10:49;;;;;;;33.00;29.50;;;;;;;12.86;100.00;97265.53;109651;1250;59080;-68
2023/10/25 00:13:16;;;;;;;32.50;29.10;;;;;;;12.86;100.00;97261.05;109579;1250;59019;-68
2023/10/25 00:15:43;;;;;;;32.30;28.80;;;;;;;12.86;100.00;97259.05;109604;1250;59451;-68
2023/10/25 00:18:09;;;;;;;31.30;28.00;;;;;;;12.87;100.00;97256.52;109633;1250;59124;-68
2023/10/25 00:20:39;;;;;;;32.70;28.40;;;;;;;12.87;100.00;97252.56;109496;1251;59445;-69
2023/10/25 00:23:05;;;;;;;33.60;29.20;;;;;;;12.88;100.00;97249.42;109596;1250;60011;-68
2023/10/25 00:25:32;;;;;;;31.20;27.90;;;;;;;12.88;100.00;97244.58;109598;1250;59207;-68
2023/10/25 00:27:58;;;;;;;32.40;28.30;;;;;;;12.88;100.00;97240.67;109595;1250;59101;-68
2023/10/25 00:30:25;;;;;;;31.10;27.70;;;;;;;12.89;100.00;97233.12;109602;1250;59059;-68
2023/10/25 00:32:51;;;;;;;30.30;27.20;;;;;;;12.89;100.00;97233.29;109574;1250;66034;-68
2023/10/25 00:35:18;;;;;;;33.80;27.70;;;;;;;12.89;100.00;97231.11;109668;1250;59304;-68
2023/10/25 00:37:44;;;;;;;31.30;26.80;;;;;;;12.89;100.00;97226.30;109577;1250;58955;-67
2023/10/25 00:40:11;;;;;;;31.40;27.60;;;;;;;12.89;100.00;97224.33;109594;1250;69542;-68
2023/10/25 00:42:37;;;;;;;29.50;26.50;;;;;;;12.90;100.00;97218.77;109580;1250;58999;-68
2023/10/25 00:45:04;;;;;;;31.80;26.20;;;;;;;12.90;100.00;97213.61;109603;1250;59233;-68
2023/10/25 00:47:31;;;;;;;31.10;26.30;;;;;;;12.89;100.00;97214.17;109586;1250;60277;-68
2023/10/25 00:49:57;;;;;;;30.00;25.30;;;;;;;12.90;100.00;97212.71;109520;1251;65115;-69
2023/10/25 00:52:24;;;;;;;30.20;27.00;;;;;;;12.90;100.00;97212.98;109571;1250;59187;-67
2023/10/25 00:54:51;;;;;;;28.60;25.60;;;;;;;12.91;100.00;97206.20;109614;1250;58988;-68
2023/10/25 00:57:18;;;;;;;29.80;26.70;;;;;;;12.91;100.00;97206.48;109630;1250;65649;-68
2023/10/25 00:59:45;;;;;;;28.40;25.50;;;;;;;12.92;100.00;97204.49;109651;1250;60242;-68
2023/10/25 01:02:12;;;;;;;28.30;25.40;;;;;;;12.92;100.00;97202.65;109623;1250;64048;-69
2023/10/25 01:04:39;;;;;;;27.20;24.20;;;;;;;12.93;100.00;97199.73;109571;1250;58964;-67
2023/10/25 01:07:05;;;;;;;28.30;25.30;;;;;;;12.93;100.00;97201.16;109284;1255;59052;-67
2023/10/25 01:09:32;;;;;;;29.90;25.90;;;;;;;12.93;100.00;97199.20;109301;1254;66097;-68
2023/10/25 01:11:59;;;;;;;28.20;25.30;;;;;;;12.93;100.00;97193.45;109325;1254;60152;-68
2023/10/25 01:14:27;;;;;;;27.30;24.00;;;;;;;12.94;100.00;97190.73;109332;1254;62853;-68
2023/10/25 01:16:53;;;;;;;27.80;25.10;;;;;;;12.93;100.00;97189.16;109295;1254;59041;-68
2023/10/25 01:19:19;;;;;;;28.00;24.90;;;;;;;12.93;100.00;97186.49;109282;1256;59313;-68
2023/10/25 01:21:46;;;;;;;28.40;25.50;;;;;;;12.94;100.00;97180.70;109302;1254;59106;-68
2023/10/25 01:24:12;;;;;;;29.50;26.20;;;;;;;12.94;100.00;97178.90;109322;1254;59328;-68
2023/10/25 01:26:40;;;;;;;28.00;24.90;;;;;;;12.94;100.00;97174.42;109322;1254;59392;-68
2023/10/25 01:29:06;;;;;;;27.50;24.70;;;;;;;12.95;100.00;97175.29;109276;1254;59472;-68
2023/10/25 01:31:32;;;;;;;28.10;24.70;;;;;;;12.96;100.00;97176.77;109297;1254;58904;-68
2023/10/25 01:33:59;;;;;;;29.50;24.00;;;;;;;12.96;100.00;97175.55;109060;1254;59124;-68
2023/10/25 01:36:25;;;;;;;27.70;24.50;;;;;;;12.97;100.00;97177.77;109309;1254;60220;-68
2023/10/25 01:38:52;;;;;;;28.80;26.00;;;;;;;12.97;100.00;97178.94;109512;1250;59021;-68
2023/10/25 01:41:18;;;;;;;27.70;24.80;;;;;;;12.98;100.00;97175.36;109599;1250;59070;-69
2023/10/25 01:43:45;;;;;;;29.50;25.70;;;;;;;12.99;100.00;97178.42;109526;1251;59045;-68
2023/10/25 01:46:11;;;;;;;28.40;25.50;;;;;;;12.99;100.00;97178.21;109586;1250;59026;-69
2023/10/25 01:48:38;;;;;;;28.80;25.10;;;;;;;13.00;100.00;97176.35;109614;1250;59002;-67
2023/10/25 01:51:09;;;;;;;28.30;24.70;;;;;;;13.00;100.00;97175.64;109523;1250;59791;-68
2023/10/25 01:53:36;;;;;;;27.10;24.40;;;;;;;13.01;100.00;97174.69;109567;1250;59170;-67
2023/10/25 01:56:03;;;;;;;27.30;24.40;;;;;;;13.01;100.00;97172.34;109579;1250;59075;-68
2023/10/25 01:58:30;;;;;;;32.60;29.30;;;;;;;13.01;100.00;97173.88;109575;1250;64813;-68
2023/10/25 02:00:56;;;;;;;28.30;25.40;;;;;;;13.02;100.00;97177.75;109591;1251;60260;-67
2023/10/25 02:03:23;;;;;;;31.10;27.80;;;;;;;13.02;100.00;97173.48;109554;1250;59589;-67
2023/10/25 02:05:49;;;;;;;31.90;28.80;;;;;;;13.02;100.00;97172.54;109585;1250;58956;-67
2023/10/25 02:08:16;;;;;;;28.40;25.30;;;;;;;13.03;100.00;97168.38;109551;1250;59136;-68
2023/10/25 02:10:42;;;;;;;32.70;29.10;;;;;;;13.03;100.00;97160.16;109601;1250;65008;-68
2023/10/25 02:13:09;;;;;;;29.40;26.20;;;;;;;13.03;100.00;97161.95;109606;1250;59209;-69
2023/10/25 02:15:35;;;;;;;28.10;25.20;;;;;;;13.03;100.00;97162.41;109407;1251;59396;-68
2023/10/25 02:18:01;;;;;;;25.90;23.30;;;;;;;13.04;100.00;97159.17;109598;1250;59003;-67
2023/10/25 02:20:29;;;;;;;27.90;24.90;;;;;;;13.04;100.00;97157.38;109516;1251;59026;-67
2023/10/25 02:22:55;;;;;;;26.80;24.10;;;;;;;13.05;100.00;97156.40;109524;1250;66899;-67
2023/10/25 02:25:22;;;;;;;28.20;25.30;;;;;;;13.05;100.00;97157.80;109633;1250;58988;-68
2023/10/25 02:27:48;;;;;;;28.00;25.10;;;;;;;13.05;100.00;97154.83;109573;1251;59084;-67
2023/10/25 02:30:15;;;;;;;30.30;25.60;;;;;;;13.05;100.00;97154.47;109588;1250;58988;-68
2023/10/25 02:32:41;;;;;;;28.80;25.70;;;;;;;13.05;100.00;97155.13;109575;1250;59254;-67
2023/10/25 02:35:08;;;;;;;27.80;24.60;;;;;;;13.06;100.00;97155.96;109404;1251;59238;-68
2023/10/25 02:37:34;;;;;;;27.60;24.70;;;;;;;13.06;100.00;97157.31;109590;1250;60218;-68
2023/10/25 02:40:01;;;;;;;29.50;26.40;;;;;;;13.06;100.00;97162.89;109574;1250;59092;-68
2023/10/25 02:42:28;;;;;;;29.90;26.80;;;;;;;13.04;100.00;97166.86;109642;1250;58999;-68
2023/10/25 02:44:54;;;;;;;34.10;30.40;;;;;;;13.03;100.00;97168.89;109580;1250;58994;-68
2023/10/25 02:47:21;;;;;;;31.80;28.40;;;;;;;13.02;100.00;97176.35;109606;1250;64909;-67
2023/10/25 02:49:48;;;;;;;27.80;24.60;;;;;;;13.00;100.00;97175.08;109569;1250;58961;-68
2023/10/25 02:52:14;;;;;;;29.20;25.00;;;;;;;13.00;100.00;97176.52;109609;1250;64085;-67
2023/10/25 02:54:41;;;;;;;24.60;22.00;;;;;;;13.01;100.00;97172.55;109571;1250;59028;-67
2023/10/25 02:57:07;;;;;;;20.40;18.30;;;;;;;13.02;100.00;97168.14;109540;1250;58946;-67
2023/10/25 02:59:34;;;;;;;23.70;16.80;;;;;;;13.02;100.00;97167.02;109619;1250;67003;-68
2023/10/25 03:02:00;;;;;;;21.10;16.50;;;;;;;13.02;100.00;97168.26;109598;1250;60967;-67
2023/10/25 03:04:27;;;;;;;18.40;16.00;;;;;;;13.04;100.00;97162.09;109594;1250;65279;-67
2023/10/25 03:06:53;;;;;;;19.20;16.60;;;;;;;13.04;100.00;97161.29;109564;1251;59043;-68
2023/10/25 03:09:20;;;;;;;17.90;16.00;;;;;;;13.04;100.00;97158.78;109631;1250;59055;-69
2023/10/25 03:11:46;;;;;;;17.20;15.50;;;;;;;13.04;100.00;97160.71;109487;1253;59670;-68
2023/10/25 03:14:13;;;;;;;17.80;15.90;;;;;;;13.04;100.00;97168.23;109606;1250;58987;-68
2023/10/25 03:16:39;;;;;;;21.30;16.90;;;;;;;13.04;100.00;97170.21;109622;1250;59303;-68
2023/10/25 03:19:06;;;;;;;27.60;24.70;;;;;;;13.04;100.00;97171.98;109572;1250;58984;-67
2023/10/25 03:21:33;;;;;;;34.10;30.60;;;;;;;13.04;100.00;97172.32;109566;1250;58934;-68
2023/10/25 03:23:59;;;;;;;44.10;39.40;;;;;;;13.04;100.00;97173.82;109531;1251;66681;-68
2023/10/25 03:26:26;;;;;;;42.20;37.90;;;;;;;13.04;100.00;97176.27;109612;1251;59042;-67
2023/10/25 03:28:52;;;;;;;38.30;34.40;;;;;;;13.04;100.00;97180.23;109579;1250;59061;-69
2023/10/25 03:31:19;;;;;;;32.80;29.40;;;;;;;13.04;100.00;97181.64;109591;1250;58956;-69
2023/10/25 03:33:45;;;;;;;29.50;26.60;;;;;;;13.05;100.00;97182.44;109589;1250;58992;-68
2023/10/25 03:36:12;;;;;;;26.20;23.40;;;;;;;13.05;100.00;97189.70;109589;1250;59205;-67
2023/10/25 03:38:38;;;;;;;23.50;21.20;;;;;;;13.06;100.00;97192.80;109631;1250;59402;-68
2023/10/25 03:41:07;;;;;;;23.80;21.40;;;;;;;13.07;100.00;97196.86;109411;1251;59667;-67
2023/10/25 03:43:35;;;;;;;22.20;19.90;;;;;;;13.08;100.00;97198.63;109576;1251;58930;-69
2023/10/25 03:46:06;;;;;;;21.80;18.30;;;;;;;13.08;100.00;97198.98;109604;1250;58877;-69
2023/10/25 03:48:34;;;;;;;18.80;16.00;;;;;;;13.09;100.00;97199.30;109565;1250;65720;-68
2023/10/25 03:51:05;;;;;;;19.60;16.20;;;;;;;13.10;100.00;97197.77;109476;1251;61027;-69
2023/10/25 03:53:35;;;;;;;19.40;15.80;;;;;;;13.10;100.00;97201.98;109564;1251;63906;-68
2023/10/25 03:56:03;;;;;;;21.00;18.70;;;;;;;13.10;100.00;97202.55;109613;1250;59002;-69
2023/10/25 03:58:29;;;;;;;22.70;20.40;;;;;;;13.10;100.00;97201.15;109589;1251;59028;-68
2023/10/25 04:00:58;;;;;;;26.90;24.10;;;;;;;13.10;100.00;97206.33;109626;1250;66772;-69
2023/10/25 04:03:24;;;;;;;24.70;22.10;;;;;;;13.09;100.00;97209.97;109614;1250;60186;-68
2023/10/25 04:05:51;;;;;;;22.60;20.20;;;;;;;13.09;100.00;97207.70;109572;1250;63737;-68
2023/10/25 04:08:18;;;;;;;21.20;19.00;;;;;;;13.08;100.00;97205.05;109539;1250;58996;-69
2023/10/25 04:10:52;;;;;;;25.80;23.20;;;;;;;13.08;100.00;97210.63;109547;1251;59368;-68
2023/10/25 04:13:19;;;;;;;28.10;25.20;;;;;;;13.07;100.00;97210.77;109617;1251;67195;-69
2023/10/25 04:16:00;;;;;;;28.80;25.90;;;;;;;13.05;100.00;97213.84;109595;1250;59212;-68
2023/10/25 04:18:31;;;;;;;28.90;25.90;;;;;;;13.03;100.00;97214.56;109551;1251;62430;-68
2023/10/25 04:21:00;;;;;;;31.90;28.80;;;;;;;13.01;100.00;97217.77;109560;1250;59039;-68
2023/10/25 04:23:30;;;;;;;29.50;26.50;;;;;;;13.01;100.00;97219.44;109567;1250;58840;-68
2023/10/25 04:26:07;;;;;;;33.50;30.00;;;;;;;13.01;100.00;97223.19;109586;1251;64504;-69
2023/10/25 04:28:34;;;;;;;30.20;27.10;;;;;;;12.99;100.00;97222.14;109609;1250;61342;-69
2023/10/25 04:31:01;;;;;;;26.20;23.70;;;;;;;12.97;100.00;97224.77;109529;1250;63940;-68
2023/10/25 04:33:27;;;;;;;27.00;24.00;;;;;;;12.96;100.00;97225.64;109548;1251;59320;-68
2023/10/25 04:35:55;;;;;;;30.20;27.30;;;;;;;12.93;100.00;97221.77;109616;1251;58980;-68
2023/10/25 04:38:25;;;;;;;32.40;29.10;;;;;;;12.90;100.00;97224.98;109606;1250;64880;-67
2023/10/25 04:40:52;;;;;;;34.20;30.70;;;;;;;12.88;100.00;97226.97;109618;1250;59947;-69
2023/10/25 04:43:19;;;;;;;32.00;28.70;;;;;;;12.87;100.00;97225.85;109564;1250;64062;-67
2023/10/25 04:45:46;;;;;;;34.20;30.60;;;;;;;12.85;100.00;97232.09;109561;1250;58988;-68
2023/10/25 04:48:12;;;;;;;27.10;24.40;;;;;;;12.83;100.00;97235.33;109595;1250;58968;-68
2023/10/25 04:50:39;;;;;;;26.30;23.60;;;;;;;12.80;100.00;97235.29;109535;1251;66017;-67
2023/10/25 04:53:06;;;;;;;26.80;24.00;;;;;;;12.78;100.00;97241.40;109517;1250;61294;-67
2023/10/25 04:55:34;;;;;;;28.70;23.00;;;;;;;12.77;100.00;97244.42;109598;1251;64037;-67
2023/10/25 04:58:01;;;;;;;24.70;22.10;;;;;;;12.75;100.00;97247.05;109493;1251;58963;-67
2023/10/25 05:00:29;;;;;;;24.80;22.20;;;;;;;12.73;100.00;97251.30;109552;1250;59143;-68
2023/10/25 05:02:56;;;;;;;24.60;21.90;;;;;;;12.72;100.00;97253.23;109591;1250;65874;-68
2023/10/25 05:05:22;;;;;;;25.00;21.60;;;;;;;12.71;100.00;97259.38;109547;1251;61198;-67
2023/10/25 05:07:51;;;;;;;22.40;20.10;;;;;;;12.70;100.00;97262.87;109575;1250;64076;-68
2023/10/25 05:10:18;;;;;;;20.30;17.90;;;;;;;12.69;100.00;97266.89;109528;1251;58974;-68
2023/10/25 05:12:46;;;;;;;24.30;20.00;;;;;;;12.68;100.00;97267.94;109413;1251;59262;-69
2023/10/25 05:15:17;;;;;;;25.20;20.70;;;;;;;12.66;100.00;97264.70;109567;1251;67223;-69
2023/10/25 05:17:47;;;;;;;25.30;20.90;;;;;;;12.65;100.00;97267.13;109611;1251;60111;-67
2023/10/25 05:20:14;;;;;;;23.00;20.40;;;;;;;12.65;100.00;97272.96;109566;1251;64182;-68
2023/10/25 05:22:43;;;;;;;25.60;22.90;;;;;;;12.63;100.00;97272.15;109509;1250;58926;-68
2023/10/25 05:25:10;;;;;;;29.10;25.40;;;;;;;12.61;100.00;97276.46;109613;1250;59044;-69
2023/10/25 05:27:37;;;;;;;27.40;24.60;;;;;;;12.61;100.00;97282.00;109625;1251;65831;-68
2023/10/25 05:30:07;;;;;;;28.50;25.10;;;;;;;12.61;100.00;97288.80;109621;1251;60588;-67
2023/10/25 05:32:39;;;;;;;29.00;26.00;;;;;;;12.60;100.00;97294.21;109537;1251;62845;-67
2023/10/25 05:35:06;;;;;;;31.90;27.40;;;;;;;12.59;100.00;97299.98;109536;1251;59328;-69
2023/10/25 05:37:33;;;;;;;29.80;26.50;;;;;;;12.60;100.00;97304.97;109581;1251;59025;-68
2023/10/25 05:40:00;;;;;;;31.00;27.60;;;;;;;12.58;100.00;97310.67;109516;1251;66052;-68
2023/10/25 05:42:27;;;;;;;30.40;26.70;;;;;;;12.56;100.00;97315.14;109547;1250;59092;-68
2023/10/25 05:44:55;;;;;;;30.30;27.00;;;;;;;12.54;100.00;97317.45;109529;1251;65279;-67
2023/10/25 05:47:25;;;;;;;33.70;28.90;;;;;;;12.52;100.00;97320.48;109517;1251;58946;-68
2023/10/25 05:49:52;;;;;;;31.90;28.40;;;;;;;12.50;100.00;97324.20;109594;1251;59098;-67
2023/10/25 05:52:20;;;;;;;33.20;27.80;;;;;;;12.49;100.00;97328.30;109381;1251;66055;-67
2023/10/25 05:54:47;;;;;;;37.00;31.30;;;;;;;12.48;100.00;97333.73;109545;1251;59070;-68
2023/10/25 05:57:14;;;;;;;40.00;34.60;;;;;;;12.47;100.00;97339.72;109521;1251;65158;-67
2023/10/25 05:59:41;;;;;;;41.10;33.10;;;;;;;12.46;100.00;97343.19;109562;1251;59004;-67
2023/10/25 06:02:10;;;;;;;34.20;30.00;;;;;;;12.45;100.00;97348.11;109546;1251;58903;-69
2023/10/25 06:04:38;;;;;;;33.80;28.20;;;;;;;12.44;100.00;97353.18;109571;1250;66117;-68
2023/10/25 06:07:06;;;;;;;34.40;28.20;;;;;;;12.43;100.00;97357.21;109413;1250;60174;-67
2023/10/25 06:09:33;;;;;;;36.50;32.50;;;;;;;12.42;100.00;97363.92;109561;1251;63956;-68
2023/10/25 06:12:00;;;;;;;42.60;34.20;;;;;;;12.40;100.00;97369.66;109540;1250;58961;-68
2023/10/25 06:14:27;;;;;;;43.70;37.00;;;;;;;12.39;100.00;97372.58;109566;1250;59708;-68
2023/10/25 06:16:54;;;;;;;39.80;35.30;;;;;;;12.38;100.00;97373.96;109533;1251;66012;-67
2023/10/25 06:19:20;;;;;;;35.10;31.20;;;;;;;12.36;100.00;97379.33;109496;1253;59113;-67
2023/10/25 06:21:46;;;;;;;29.80;26.60;;;;;;;12.35;100.00;97381.02;109456;1254;65147;-68
2023/10/25 06:24:13;;;;;;;31.20;26.30;;;;;;;12.35;100.00;97384.02;109543;1253;59005;-69
2023/10/25 06:26:41;;;;;;;31.70;27.00;;;;;;;12.36;100.00;97383.44;109474;1253;58958;-69
2023/10/25 06:29:08;;;;;;;34.70;30.30;;;;;;;12.37;100.00;97385.95;109462;1253;66681;-68
2023/10/25 06:31:34;;;;;;;35.00;29.50;;;;;;;12.38;100.00;97391.23;109449;1253;60338;-69
2023/10/25 06:34:01;;;;;;;39.90;35.60;;;;;;;12.38;100.00;97392.51;109345;1253;59199;-68
2023/10/25 06:36:27;;;;;;;36.30;31.90;;;;;;;12.39;100.00;97393.08;109468;1253;59063;-68
2023/10/25 06:38:54;;;;;;;33.70;29.50;;;;;;;12.38;100.00;97395.11;109455;1256;58898;-68
2023/10/25 06:41:24;;;;;;;32.80;29.30;;;;;;;12.37;100.00;97399.15;109505;1253;66235;-68
2023/10/25 06:43:51;;;;;;;27.20;24.40;;;;;;;12.36;100.00;97400.34;109480;1253;61491;-67
2023/10/25 06:46:20;;;;;;;27.60;24.80;;;;;;;12.34;100.00;97401.72;109450;1254;65159;-68
2023/10/25 06:48:47;;;;;;;29.50;26.30;;;;;;;12.33;100.00;97408.98;109485;1253;59604;-68
2023/10/25 06:51:15;;;;;;;31.70;28.40;;;;;;;12.32;100.00;97415.31;109577;1250;59017;-68
2023/10/25 06:53:42;;;;;;;26.30;23.70;;;;;;;12.32;100.00;97414.81;109591;1251;66073;-68
2023/10/25 06:56:09;;;;;;;23.50;21.10;;;;;;;12.31;100.00;97415.44;109387;1251;59143;-68
2023/10/25 06:58:40;;;;;;;26.50;21.50;;;;;;;12.29;100.00;97415.95;109349;1251;64396;-68
2023/10/25 07:01:07;;;;;;;24.70;22.00;;;;;;;12.28;100.00;97418.52;109540;1251;58994;-67
2023/10/25 07:03:35;;;;;;;24.40;19.70;;;;;;;12.27;100.00;97418.98;109408;1250;58910;-68
2023/10/25 07:06:03;;;;;;;25.30;20.70;;;;;;;12.25;100.00;97418.84;109542;1251;66030;-68
2023/10/25 07:08:31;;;;;;;22.80;19.30;;;;;;;12.23;100.00;97421.48;109534;1251;60261;-68
2023/10/25 07:10:58;;;;;;;21.10;17.70;;;;;;;12.22;100.00;97427.65;109552;1251;64067;-68
2023/10/25 07:13:26;;;;;;;22.30;18.30;;;;;;;12.22;100.00;97433.70;109608;1251;59048;-68
2023/10/25 07:15:54;;;;;;;21.50;18.70;;;;;;;12.21;100.00;97438.96;109589;1250;59195;-68
2023/10/25 07:18:20;;;;;;;22.40;18.60;;;;;;;12.19;100.00;97440.64;109534;1251;64845;-68
2023/10/25 07:20:47;;;;;;;22.00;19.60;;;;;;;12.18;100.00;97441.45;109603;1250;58960;-69
2023/10/25 07:23:13;;;;;;;22.10;18.30;;;;;;;12.17;100.00;97438.81;109560;1250;62845;-68
2023/10/25 07:25:40;;;;;;;22.40;18.60;;;;;;;12.17;100.00;97439.05;109607;1250;58942;-67
2023/10/25 07:28:06;;;;;;;23.30;17.40;;;;;;;12.17;100.00;97440.46;109565;1251;59084;-67
2023/10/25 07:30:36;;;;;;;19.20;17.10;;;;;;;12.17;100.00;97439.92;109574;1250;58985;-68
2023/10/25 07:33:02;;;;;;;21.20;18.60;;;;;;;12.18;100.00;97438.98;109547;1251;59977;-68
2023/10/25 07:35:29;;;;;;;16.30;14.50;;;;;;;12.18;100.00;97436.60;109540;1250;64167;-68
2023/10/25 07:37:56;;;;;;;19.60;16.90;;;;;;;12.18;100.00;97437.55;109600;1250;59018;-69
2023/10/25 07:40:22;;;;;;;23.50;18.70;;;;;;;12.19;100.00;97443.29;109408;1258;59111;-67
2023/10/25 07:42:48;;;;;;;18.30;16.40;;;;;;;12.21;100.00;97446.16;109557;1251;59028;-67
2023/10/25 07:45:15;;;;;;;22.00;18.40;;;;;;;12.22;100.00;97443.41;109586;1251;58961;-67
2023/10/25 07:47:41;;;;;;;18.20;16.40;;;;;;;12.24;100.00;97446.94;109563;1251;64056;-67
2023/10/25 07:50:08;;;;;;;19.20;17.30;;;;;;;12.27;100.00;97447.10;109558;1252;58992;-68
2023/10/25 07:52:35;;;;;;;19.00;17.00;;;;;;;12.33;100.00;97444.25;109638;1250;59325;-68
2023/10/25 07:55:04;;;;;;;17.80;15.90;;;;;;;12.39;100.00;97445.27;109575;1250;65913;-68
2023/10/25 07:57:33;;;;;;;17.80;15.90;;;;;;;12.45;100.00;97448.95;109548;1251;68986;-67
2023/10/25 08:00:00;;;;;;;17.90;16.10;;;;;;;12.48;100.00;97452.69;109459;1254;64079;-68
2023/10/25 08:02:26;;;;;;;17.60;15.70;;;;;;;12.49;100.00;97451.33;109442;1253;58959;-69
2023/10/25 08:04:53;;;;;;;16.20;14.60;;;;;;;12.50;100.00;97453.16;109468;1253;59373;-68
2023/10/25 08:07:19;;;;;;;17.80;16.10;;;;;;;12.50;100.00;97454.96;109440;1253;64930;-68
2023/10/25 08:09:47;;;;;;;16.10;14.50;;;;;;;12.50;100.00;97456.20;109498;1253;58984;-68
2023/10/25 08:12:13;;;;;;;16.10;14.50;;;;;;;12.49;100.00;97454.89;109462;1254;63784;-68
2023/10/25 08:14:39;;;;;;;16.90;15.20;;;;;;;12.48;100.00;97457.15;109426;1254;58993;-68
2023/10/25 08:17:06;;;;;;;16.50;14.80;;;;;;;12.47;100.00;97457.95;109505;1254;59147;-68
2023/10/25 08:19:32;;;;;;;16.40;14.80;;;;;;;12.47;100.00;97455.17;109481;1254;59050;-68
2023/10/25 08:21:59;;;;;;;14.50;13.10;;;;;;;12.48;100.00;97458.45;109475;1253;59050;-67
2023/10/25 08:24:26;;;;;;;15.70;13.70;;;;;;;12.49;100.00;97457.40;109495;1254;62631;-68
2023/10/25 08:26:55;;;;;;;15.00;13.50;;;;;;;12.50;100.00;97462.98;109185;1253;59190;-69
2023/10/25 08:29:21;;;;;;;12.90;11.60;;;;;;;12.50;100.00;97466.90;109491;1255;58962;-69
2023/10/25 08:31:48;;;;;;;12.30;11.00;;;;;;;12.51;100.00;97470.61;109544;1255;59309;-69
2023/10/25 08:34:15;;;;;;;11.20;10.10;;;;;;;12.53;100.00;97467.73;109578;1250;60173;-69
2023/10/25 08:36:41;;;;;;;11.80;10.70;;;;;;;12.58;100.00;97468.64;109575;1251;59095;-68
2023/10/25 08:39:08;;;;;;;11.90;10.70;;;;;;;12.66;100.00;97468.20;109577;1251;59289;-69
2023/10/25 08:41:37;;;;;;;10.80;9.70;;;;;;;12.74;100.00;97471.13;109496;1256;58977;-69
2023/10/25 08:44:04;;;;;;;11.90;10.50;;;;;;;12.84;100.00;97472.45;109598;1251;66073;-69
2023/10/25 08:46:33;;;;;;;10.60;9.50;;;;;;;12.94;100.00;97472.89;109563;1250;60173;-69
2023/10/25 08:49:00;;;;;;;11.20;10.20;;;;;;;13.03;100.00;97474.64;109537;1251;63810;-69
2023/10/25 08:51:27;;;;;;;11.00;9.90;;;;;;;13.11;100.00;97476.89;109566;1252;59017;-69
2023/10/25 08:53:59;;;;;;;11.70;10.10;;;;;;;13.14;100.00;97474.42;109570;1251;58949;-69
2023/10/25 08:56:26;;;;;;;10.30;9.30;;;;;;;13.14;100.00;97473.92;109515;1250;66157;-68
2023/10/25 08:58:56;;;;;;;11.90;10.70;;;;;;;13.12;100.00;97473.89;109633;1251;59982;-68
2023/10/25 09:01:24;;;;;;;10.90;9.80;;;;;;;13.10;100.00;97469.50;109542;1251;63719;-67
2023/10/25 09:03:51;;;;;;;11.40;8.70;;;;;;;13.07;100.00;97471.05;109567;1251;59010;-68
2023/10/25 09:06:25;;;;;;;11.40;10.30;;;;;;;13.05;100.00;97474.85;109609;1251;58882;-67
2023/10/25 09:08:59;;;;;;;14.80;11.10;;;;;;;13.02;100.00;97473.33;109450;1251;172892;-68
2023/10/25 09:11:37;;;;;;;13.70;10.90;;;;;;;13.00;100.00;97474.74;109621;1251;59878;-69
2023/10/25 09:14:04;;;;;;;11.00;9.90;;;;;;;13.01;100.00;97476.32;109464;1251;65235;-68
2023/10/25 09:16:31;;;;;;;10.80;9.70;;;;;;;13.04;100.00;97479.58;109540;1251;59237;-69
2023/10/25 09:19:01;;;;;;;11.90;9.70;;;;;;;13.07;100.00;97480.85;109568;1251;58863;-69
2023/10/25 09:21:29;;;;;;;11.40;10.20;;;;;;;13.10;100.00;97478.63;109529;1251;67168;-69
2023/10/25 09:23:59;;;;;;;12.70;10.90;;;;;;;13.13;100.00;97484.50;109579;1251;61050;-68
2023/10/25 09:26:33;;;;;;;11.80;9.50;;;;;;;13.17;100.00;97487.30;109561;1250;62739;-68
2023/10/25 09:28:59;;;;;;;8.20;7.40;;;;;;;13.18;100.00;97486.61;109530;1255;59023;-68
2023/10/25 09:31:29;;;;;;;7.10;6.40;;;;;;;13.19;100.00;97490.10;109617;1251;58873;-69
2023/10/25 09:34:00;;;;;;;11.80;7.10;;;;;;;13.22;100.00;97490.89;109572;1251;65697;-68
2023/10/25 09:36:27;;;;;;;5.80;5.30;;;;;;;13.24;100.00;97492.81;109563;1250;59233;-68
2023/10/25 09:38:55;;;;;;;6.90;6.10;;;;;;;13.26;100.00;97500.91;109512;1251;62817;-68
2023/10/25 09:41:22;;;;;;;5.80;5.10;;;;;;;13.28;100.00;97498.86;109551;1252;59007;-68
2023/10/25 09:43:50;;;;;;;5.50;5.00;;;;;;;13.28;100.00;97504.94;109435;1251;59158;-68
2023/10/25 09:46:18;;;;;;;7.10;5.20;;;;;;;13.27;100.00;97508.66;109583;1251;66726;-68
2023/10/25 09:48:58;;;;;;;5.70;4.80;;;;;;;13.26;100.00;97506.92;109605;1251;59898;-67
2023/10/25 09:51:51;;;;;;;5.90;5.10;;;;;;;13.26;100.00;97504.44;109541;1252;63816;-68
2023/10/25 09:54:31;;;;;;;6.80;6.10;;;;;;;13.29;100.00;97507.70;109498;1251;59038;-68
2023/10/25 09:56:59;;;;;;;4.90;4.40;;;;;;;13.35;100.00;97514.83;109549;1251;58980;-69
2023/10/25 09:59:28;;;;;;;6.20;5.10;;;;;;;13.36;100.00;97513.89;109535;1251;64798;-68
2023/10/25 10:01:55;;;;;;;6.30;5.60;;;;;;;13.39;100.00;97520.58;109537;1251;60027;-67
2023/10/25 10:04:37;;;;;;;5.70;5.20;;;;;;;13.41;100.00;97524.20;109536;1251;62863;-68
2023/10/25 10:07:12;;;;;;;7.10;6.40;;;;;;;13.41;100.00;97529.15;109239;1254;59095;-68
2023/10/25 10:09:47;;;;;;;6.30;5.60;;;;;;;13.37;100.00;97527.35;109326;1254;58973;-68
2023/10/25 10:12:14;;;;;;;7.10;6.00;;;;;;;13.34;100.00;97529.27;109348;1254;65937;-69
2023/10/25 10:14:40;;;;;;;7.00;6.10;;;;;;;13.32;100.00;97531.30;109392;1254;60191;-68
2023/10/25 10:17:14;;;;;;;9.50;8.00;;;;;;;13.27;100.00;97526.77;109289;1254;64243;-68
2023/10/25 10:19:44;;;;;;;6.60;6.00;;;;;;;13.23;100.00;97533.95;109168;1254;59095;-68
2023/10/25 10:22:14;;;;;;;7.10;6.50;;;;;;;13.19;100.00;97539.89;109328;1255;59081;-68
2023/10/25 10:24:45;;;;;;;6.70;6.10;;;;;;;13.17;100.00;97542.02;109341;1254;65763;-69
2023/10/25 10:27:17;;;;;;;5.70;5.20;;;;;;;13.17;100.00;97544.23;109250;1253;60146;-69
2023/10/25 10:29:48;;;;;;;5.60;5.10;;;;;;;13.15;100.00;97542.67;109288;1257;72992;-69
2023/10/25 10:32:16;;;;;;;4.80;4.40;;;;;;;13.16;100.00;97538.94;109297;1254;58973;-67
2023/10/25 10:34:56;;;;;;;5.20;4.70;;;;;;;13.19;100.00;97537.04;109322;1253;59043;-68
2023/10/25 10:37:25;;;;;;;5.40;4.50;;;;;;;13.24;100.00;97532.50;109359;1251;66113;-68
2023/10/25 10:39:57;;;;;;;4.90;4.50;;;;;;;13.24;100.00;97534.06;109401;1254;59079;-68
2023/10/25 10:42:38;;;;;;;6.40;5.60;;;;;;;13.23;100.00;97535.01;109592;1251;65221;-69
2023/10/25 10:45:09;;;;;;;9.80;8.80;;;;;;;13.26;100.00;97539.77;109581;1251;59305;-68
2023/10/25 10:47:41;;;;;;;9.80;9.10;;;;;;;13.32;100.00;97538.29;109638;1250;58979;-68
2023/10/25 10:50:12;;;;;;;7.60;6.90;;;;;;;13.35;100.00;97534.70;109551;1251;64853;-69
2023/10/25 10:52:41;;;;;;;8.60;7.80;;;;;;;13.37;100.00;97535.08;109568;1251;60011;-68
2023/10/25 10:55:09;;;;;;;7.90;7.10;;;;;;;13.43;100.00;97532.20;109574;1250;64852;-69
2023/10/25 10:57:39;;;;;;;6.10;5.60;;;;;;;13.51;100.00;97538.15;109507;1251;59051;-69
2023/10/25 11:00:08;;;;;;;6.20;4.70;;;;;;;13.58;100.00;97538.10;109600;1254;59237;-69
2023/10/25 11:02:38;;;;;;;4.50;4.00;;;;;;;13.64;100.00;97542.71;109413;1251;65846;-69
2023/10/25 11:05:05;;;;;;;3.70;3.30;;;;;;;13.70;100.00;97545.63;109420;1251;61063;-69
2023/10/25 11:07:33;;;;;;;5.30;4.90;;;;;;;13.78;100.00;97540.70;109539;1251;62574;-68